createdAt,value
2023-05-01T00:00:52.887Z,37.87
2023-05-01T00:01:52.868Z,37.52
2023-05-01T00:02:52.963Z,45.87
2023-05-01T00:03:53.196Z,37.87
2023-05-01T00:04:52.841Z,37.70
2023-05-01T00:05:52.827Z,38.05
2023-05-01T00:06:53.517Z,37.56
2023-05-01T00:07:52.822Z,38.03
2023-05-01T00:08:52.802Z,37.92
2023-05-01T00:09:52.783Z,37.24
2023-05-01T00:10:52.777Z,36.92
2023-05-01T00:11:52.766Z,37.47
2023-05-01T00:12:52.773Z,37.28
2023-05-01T00:13:52.746Z,36.71
2023-05-01T00:14:52.726Z,37.78
2023-05-01T00:15:52.762Z,38.46
2023-05-01T00:16:52.969Z,42.74
2023-05-01T00:17:52.722Z,42.12
2023-05-01T00:18:52.690Z,40.42
2023-05-01T00:19:52.677Z,39.90
2023-05-01T00:20:52.675Z,37.70
2023-05-01T00:21:52.674Z,38.18
2023-05-01T00:22:52.672Z,38.36
2023-05-01T00:23:52.640Z,38.10
2023-05-01T00:24:52.627Z,39.87
2023-05-01T00:25:52.648Z,44.10
2023-05-01T00:26:52.610Z,43.08
2023-05-01T00:27:52.601Z,45.23
2023-05-01T00:28:52.585Z,37.97
2023-05-01T00:29:52.576Z,38.07
2023-05-01T00:30:52.572Z,37.50
2023-05-01T00:31:52.621Z,37.43
2023-05-01T00:32:52.581Z,38.20
2023-05-01T00:33:52.532Z,38.58
2023-05-01T00:34:52.525Z,46.28
2023-05-01T00:35:52.510Z,38.06
2023-05-01T00:36:52.503Z,38.38
2023-05-01T00:37:52.500Z,38.12
2023-05-01T00:38:52.488Z,38.58
2023-05-01T00:39:52.472Z,37.61
2023-05-01T00:40:52.462Z,38.05
2023-05-01T00:41:52.449Z,38.77
2023-05-01T00:42:52.451Z,38.88
2023-05-01T00:43:52.433Z,38.53
2023-05-01T00:44:52.435Z,40.81
2023-05-01T00:45:52.455Z,41.46
2023-05-01T00:46:52.401Z,37.67
2023-05-01T00:47:52.413Z,41.73
2023-05-01T00:48:52.377Z,38.42
2023-05-01T00:49:52.368Z,37.14
2023-05-01T00:50:52.354Z,37.01
2023-05-01T00:51:52.347Z,37.87
2023-05-01T00:52:52.345Z,39.32
2023-05-01T00:53:52.328Z,37.86
2023-05-01T00:54:52.312Z,37.33
2023-05-01T00:55:52.299Z,37.23
2023-05-01T00:56:52.320Z,37.57
2023-05-01T00:57:52.291Z,37.57
2023-05-01T00:58:52.269Z,37.75
2023-05-01T00:59:52.260Z,38.08
2023-05-01T01:00:52.380Z,37.67
2023-05-01T01:01:53.806Z,37.57
2023-05-01T01:02:52.271Z,38.23
2023-05-01T01:03:52.248Z,39.09
2023-05-01T01:04:52.267Z,38.36
2023-05-01T01:05:52.199Z,38.48
2023-05-01T01:06:52.186Z,37.54
2023-05-01T01:07:52.178Z,38.84
2023-05-01T01:08:52.163Z,39.35
2023-05-01T01:09:52.150Z,37.49
2023-05-01T01:10:52.142Z,37.87
2023-05-01T01:11:52.129Z,39.10
2023-05-01T01:12:52.130Z,38.51
2023-05-01T01:13:52.110Z,38.49
2023-05-01T01:14:52.114Z,44.21
2023-05-01T01:15:52.088Z,38.78
2023-05-01T01:16:52.114Z,37.81
2023-05-01T01:17:52.106Z,37.97
2023-05-01T01:18:52.055Z,38.35
2023-05-01T01:19:52.037Z,38.31
2023-05-01T01:20:52.044Z,43.85
2023-05-01T01:21:52.023Z,38.12
2023-05-01T01:22:52.029Z,37.90
2023-05-01T01:23:51.998Z,38.36
2023-05-01T01:24:51.992Z,38.78
2023-05-01T01:25:51.978Z,38.83
2023-05-01T01:26:51.976Z,38.59
2023-05-01T01:27:51.970Z,39.37
2023-05-01T01:28:51.963Z,38.18
2023-05-01T01:29:51.934Z,38.18
2023-05-01T01:30:51.948Z,38.19
2023-05-01T01:31:51.916Z,38.75
2023-05-01T01:32:51.987Z,40.61
2023-05-01T01:33:51.904Z,40.46
2023-05-01T01:34:51.886Z,42.29
2023-05-01T01:35:51.868Z,38.81
2023-05-01T01:36:51.861Z,38.40
2023-05-01T01:37:51.852Z,38.00
2023-05-01T01:38:51.865Z,37.94
2023-05-01T01:39:51.879Z,39.51
2023-05-01T01:40:51.821Z,39.34
2023-05-01T01:41:51.810Z,38.62
2023-05-01T01:42:51.806Z,38.29
2023-05-01T01:43:51.802Z,37.95
2023-05-01T01:44:51.789Z,38.39
2023-05-01T01:45:51.847Z,37.67
2023-05-01T01:46:51.761Z,38.46
2023-05-01T01:47:51.797Z,38.42
2023-05-01T01:48:51.755Z,39.27
2023-05-01T01:49:51.730Z,39.32
2023-05-01T01:50:51.721Z,38.74
2023-05-01T01:51:51.713Z,38.09
2023-05-01T01:52:51.701Z,38.85
2023-05-01T01:53:51.703Z,39.22
2023-05-01T01:54:51.680Z,38.92
2023-05-01T01:55:51.669Z,38.66
2023-05-01T01:56:51.658Z,38.28
2023-05-01T01:57:51.659Z,38.19
2023-05-01T01:58:51.663Z,38.50
2023-05-01T01:59:51.628Z,38.59
2023-05-01T02:00:51.612Z,38.63
2023-05-01T02:01:51.688Z,38.66
2023-05-01T02:02:51.725Z,38.40
2023-05-01T02:03:51.709Z,38.12
2023-05-01T02:04:51.603Z,38.19
2023-05-01T02:05:51.564Z,38.56
2023-05-01T02:06:51.572Z,38.57
2023-05-01T02:07:51.570Z,39.28
2023-05-01T02:08:51.557Z,38.14
2023-05-01T02:09:51.523Z,37.45
2023-05-01T02:10:51.514Z,37.44
2023-05-01T02:11:51.507Z,37.89
2023-05-01T02:12:51.500Z,38.23
2023-05-01T02:13:51.487Z,43.95
2023-05-01T02:14:51.484Z,38.63
2023-05-01T02:15:51.487Z,38.35
2023-05-01T02:16:51.457Z,37.77
2023-05-01T02:17:51.489Z,38.15
2023-05-01T02:18:51.445Z,38.38
2023-05-01T02:19:51.421Z,38.36
2023-05-01T02:20:51.414Z,38.55
2023-05-01T02:21:51.397Z,39.10
2023-05-01T02:22:51.393Z,39.24
2023-05-01T02:23:51.398Z,37.86
2023-05-01T02:24:51.378Z,38.51
2023-05-01T02:25:51.357Z,38.07
2023-05-01T02:26:51.350Z,38.76
2023-05-01T02:27:51.347Z,38.76
2023-05-01T02:28:51.351Z,39.15
2023-05-01T02:29:51.314Z,38.09
2023-05-01T02:30:51.313Z,38.07
2023-05-01T02:31:51.340Z,38.01
2023-05-01T02:32:51.335Z,38.76
2023-05-01T02:33:51.287Z,38.78
2023-05-01T02:34:51.274Z,44.26
2023-05-01T02:35:51.254Z,38.56
2023-05-01T02:36:51.249Z,39.01
2023-05-01T02:37:51.246Z,39.51
2023-05-01T02:38:51.302Z,38.70
2023-05-01T02:39:51.215Z,38.74
2023-05-01T02:40:51.207Z,38.87
2023-05-01T02:41:51.202Z,39.04
2023-05-01T02:42:51.182Z,38.88
2023-05-01T02:43:51.184Z,38.93
2023-05-01T02:44:51.165Z,41.32
2023-05-01T02:45:51.153Z,41.40
2023-05-01T02:46:51.156Z,45.81
2023-05-01T02:47:51.218Z,39.95
2023-05-01T02:48:51.138Z,41.14
2023-05-01T02:49:51.113Z,41.37
2023-05-01T02:50:51.100Z,41.94
2023-05-01T02:51:51.093Z,42.76
2023-05-01T02:52:51.075Z,43.05
2023-05-01T02:53:51.078Z,42.60
2023-05-01T02:54:51.063Z,43.25
2023-05-01T02:55:51.066Z,43.09
2023-05-01T02:56:51.035Z,43.87
2023-05-01T02:57:51.029Z,44.61
2023-05-01T02:58:51.027Z,47.02
2023-05-01T02:59:51.012Z,47.74
2023-05-01T03:00:51.028Z,49.54
2023-05-01T03:01:51.116Z,53.03
2023-05-01T03:02:50.993Z,46.47
2023-05-01T03:03:50.989Z,47.94
2023-05-01T03:04:50.956Z,50.26
2023-05-01T03:05:50.950Z,48.94
2023-05-01T03:06:51.074Z,48.49
2023-05-01T03:07:50.931Z,51.00
2023-05-01T03:08:50.927Z,50.58
2023-05-01T03:09:50.920Z,53.99
2023-05-01T03:10:50.891Z,49.08
2023-05-01T03:11:50.882Z,49.29
2023-05-01T03:12:50.872Z,52.49
2023-05-01T03:13:50.877Z,50.00
2023-05-01T03:14:50.849Z,50.19
2023-05-01T03:15:50.874Z,54.62
2023-05-01T03:16:50.935Z,52.61
2023-05-01T03:17:50.856Z,51.66
2023-05-01T03:18:50.818Z,51.96
2023-05-01T03:19:50.795Z,54.41
2023-05-01T03:20:50.786Z,54.81
2023-05-01T03:21:50.777Z,51.62
2023-05-01T03:22:50.766Z,51.25
2023-05-01T03:23:50.775Z,50.95
2023-05-01T03:24:50.885Z,50.11
2023-05-01T03:25:50.735Z,50.56
2023-05-01T03:26:50.727Z,50.62
2023-05-01T03:27:50.741Z,52.07
2023-05-01T03:28:50.716Z,49.18
2023-05-01T03:29:50.695Z,50.11
2023-05-01T03:30:50.691Z,49.95
2023-05-01T03:31:50.726Z,49.52
2023-05-01T03:32:50.685Z,49.21
2023-05-01T03:33:50.675Z,48.79
2023-05-01T03:34:50.697Z,50.42
2023-05-01T03:35:50.632Z,51.09
2023-05-01T03:36:50.623Z,47.84
2023-05-01T03:37:50.615Z,51.09
2023-05-01T03:38:50.632Z,46.95
2023-05-01T03:39:50.604Z,51.08
2023-05-01T03:40:50.581Z,50.54
2023-05-01T03:41:50.579Z,50.44
2023-05-01T03:42:50.559Z,49.87
2023-05-01T03:43:50.562Z,50.21
2023-05-01T03:44:50.544Z,50.69
2023-05-01T03:45:50.566Z,50.55
2023-05-01T03:46:50.517Z,48.84
2023-05-01T03:47:50.647Z,47.97
2023-05-01T03:48:50.502Z,49.07
2023-05-01T03:49:50.491Z,49.12
2023-05-01T03:50:50.476Z,47.80
2023-05-01T03:51:50.467Z,48.41
2023-05-01T03:52:50.457Z,50.37
2023-05-01T03:53:50.610Z,50.30
2023-05-01T03:54:50.436Z,45.47
2023-05-01T03:55:50.424Z,49.11
2023-05-01T03:56:50.416Z,48.56
2023-05-01T03:57:50.406Z,48.45
2023-05-01T03:58:50.395Z,50.08
2023-05-01T03:59:50.399Z,47.82
2023-05-01T04:00:50.380Z,48.15
2023-05-01T04:01:50.417Z,47.35
2023-05-01T04:02:50.610Z,46.86
2023-05-01T04:03:50.437Z,46.41
2023-05-01T04:04:50.343Z,43.16
2023-05-01T04:05:50.326Z,42.68
2023-05-01T04:06:50.393Z,41.63
2023-05-01T04:07:50.313Z,46.54
2023-05-01T04:08:50.289Z,44.18
2023-05-01T04:09:50.298Z,41.14
2023-05-01T04:10:50.271Z,48.75
2023-05-01T04:11:50.296Z,44.89
2023-05-01T04:12:50.326Z,42.18
2023-05-01T04:13:50.249Z,42.23
2023-05-01T04:14:50.244Z,46.60
2023-05-01T04:15:50.272Z,41.50
2023-05-01T04:16:50.216Z,48.80
2023-05-01T04:17:50.298Z,46.22
2023-05-01T04:18:50.195Z,48.88
2023-05-01T04:19:50.203Z,48.60
2023-05-01T04:20:50.180Z,45.77
2023-05-01T04:21:50.167Z,41.16
2023-05-01T04:22:50.177Z,49.34
2023-05-01T04:23:50.153Z,49.55
2023-05-01T04:24:50.148Z,47.84
2023-05-01T04:25:50.129Z,50.74
2023-05-01T04:26:50.121Z,46.32
2023-05-01T04:27:50.106Z,46.45
2023-05-01T04:28:50.099Z,51.36
2023-05-01T04:29:50.095Z,47.12
2023-05-01T04:30:50.078Z,50.12
2023-05-01T04:31:50.089Z,49.20
2023-05-01T04:32:50.077Z,51.79
2023-05-01T04:33:50.049Z,53.05
2023-05-01T04:34:50.044Z,51.31
2023-05-01T04:35:50.029Z,48.79
2023-05-01T04:36:50.008Z,43.45
2023-05-01T04:37:50.007Z,42.56
2023-05-01T04:38:50.000Z,45.83
2023-05-01T04:39:51.115Z,42.82
2023-05-01T04:40:51.087Z,43.55
2023-05-01T04:41:51.082Z,46.91
2023-05-01T04:42:51.071Z,49.17
2023-05-01T04:43:51.056Z,49.79
2023-05-01T04:44:51.063Z,45.67
2023-05-01T04:45:51.049Z,43.11
2023-05-01T04:46:51.070Z,41.87
2023-05-01T04:47:51.040Z,45.51
2023-05-01T04:48:51.010Z,48.93
2023-05-01T04:49:50.992Z,42.12
2023-05-01T04:50:51.994Z,40.86
2023-05-01T04:51:50.983Z,41.85
2023-05-01T04:52:50.970Z,45.80
2023-05-01T04:53:50.969Z,48.31
2023-05-01T04:54:50.961Z,45.00
2023-05-01T04:55:50.957Z,44.41
2023-05-01T04:56:50.936Z,46.12
2023-05-01T04:57:50.922Z,51.44
2023-05-01T04:58:50.916Z,49.63
2023-05-01T04:59:50.919Z,49.27
2023-05-01T05:00:50.898Z,45.60
2023-05-01T05:01:50.905Z,47.06
2023-05-01T05:02:50.925Z,47.03
2023-05-01T05:03:51.077Z,47.34
2023-05-01T05:04:51.033Z,48.74
2023-05-01T05:05:50.856Z,49.68
2023-05-01T05:06:50.853Z,46.14
2023-05-01T05:07:50.823Z,49.02
2023-05-01T05:08:50.820Z,49.76
2023-05-01T05:09:50.820Z,46.93
2023-05-01T05:10:50.798Z,42.00
2023-05-01T05:11:50.789Z,43.99
2023-05-01T05:12:50.782Z,47.43
2023-05-01T05:13:50.767Z,48.78
2023-05-01T05:14:50.755Z,50.92
2023-05-01T05:15:50.754Z,49.46
2023-05-01T05:16:50.870Z,48.86
2023-05-01T05:17:50.780Z,54.06
2023-05-01T05:18:50.722Z,49.17
2023-05-01T05:19:50.707Z,46.28
2023-05-01T05:20:50.734Z,43.57
2023-05-01T05:21:50.685Z,48.18
2023-05-01T05:22:50.694Z,43.87
2023-05-01T05:23:50.676Z,41.94
2023-05-01T05:24:50.654Z,43.50
2023-05-01T05:25:50.659Z,42.64
2023-05-01T05:26:50.632Z,42.24
2023-05-01T05:27:50.628Z,42.01
2023-05-01T05:28:50.621Z,44.04
2023-05-01T05:29:50.615Z,46.85
2023-05-01T05:30:50.608Z,48.50
2023-05-01T05:31:50.649Z,47.75
2023-05-01T05:32:50.597Z,46.92
2023-05-01T05:33:50.574Z,46.82
2023-05-01T05:34:50.556Z,47.84
2023-05-01T05:35:50.559Z,48.49
2023-05-01T05:36:50.545Z,47.50
2023-05-01T05:37:50.527Z,46.51
2023-05-01T05:38:50.520Z,46.86
2023-05-01T05:39:50.516Z,46.65
2023-05-01T05:40:50.524Z,43.07
2023-05-01T05:41:50.497Z,41.69
2023-05-01T05:42:50.482Z,42.13
2023-05-01T05:43:50.475Z,44.83
2023-05-01T05:44:50.466Z,42.51
2023-05-01T05:45:50.504Z,48.20
2023-05-01T05:46:50.441Z,42.67
2023-05-01T05:47:50.504Z,42.43
2023-05-01T05:48:50.431Z,50.63
2023-05-01T05:49:50.475Z,50.46
2023-05-01T05:50:50.408Z,52.95
2023-05-01T05:51:50.395Z,46.79
2023-05-01T05:52:50.386Z,53.08
2023-05-01T05:53:50.378Z,51.35
2023-05-01T05:54:50.365Z,51.74
2023-05-01T05:55:50.369Z,46.66
2023-05-01T05:56:50.356Z,48.51
2023-05-01T05:57:50.332Z,48.24
2023-05-01T05:58:50.346Z,51.07
2023-05-01T05:59:50.313Z,46.78
2023-05-01T06:00:50.336Z,46.56
2023-05-01T06:01:50.305Z,44.86
2023-05-01T06:02:50.324Z,51.03
2023-05-01T06:03:50.299Z,45.20
2023-05-01T06:04:50.274Z,47.97
2023-05-01T06:05:50.279Z,48.12
2023-05-01T06:06:50.283Z,48.61
2023-05-01T06:07:50.231Z,50.61
2023-05-01T06:08:50.227Z,48.34
2023-05-01T06:09:50.241Z,45.39
2023-05-01T06:10:50.199Z,44.77
2023-05-01T06:11:50.280Z,45.25
2023-05-01T06:12:59.321Z,48.87
2023-05-01T06:13:51.188Z,44.53
2023-05-01T06:14:50.173Z,50.32
2023-05-01T06:15:50.240Z,50.67
2023-05-01T06:16:50.145Z,43.43
2023-05-01T06:17:50.224Z,40.64
2023-05-01T06:18:50.127Z,43.75
2023-05-01T06:19:50.282Z,44.16
2023-05-01T06:20:50.183Z,46.91
2023-05-01T06:21:50.170Z,44.72
2023-05-01T06:22:50.160Z,44.78
2023-05-01T06:23:50.116Z,46.56
2023-05-01T06:24:50.147Z,46.35
2023-05-01T06:25:50.101Z,46.18
2023-05-01T06:26:50.156Z,45.60
2023-05-01T06:27:50.139Z,41.55
2023-05-01T06:28:50.030Z,44.34
2023-05-01T06:29:50.032Z,49.57
2023-05-01T06:30:50.029Z,46.31
2023-05-01T06:31:50.187Z,46.53
2023-05-01T06:32:50.093Z,45.34
2023-05-01T06:33:49.985Z,45.40
2023-05-01T06:34:49.976Z,48.85
2023-05-01T06:35:49.985Z,40.88
2023-05-01T06:36:49.954Z,42.29
2023-05-01T06:37:49.945Z,42.18
2023-05-01T06:38:49.940Z,48.07
2023-05-01T06:39:49.922Z,49.59
2023-05-01T06:40:49.920Z,42.96
2023-05-01T06:41:49.903Z,41.78
2023-05-01T06:42:49.888Z,41.67
2023-05-01T06:44:05.127Z,40.71
2023-05-01T06:47:16.821Z,46.17
2023-05-01T06:48:16.424Z,48.76
2023-05-01T06:49:16.432Z,41.44
2023-05-01T06:50:16.413Z,45.72
2023-05-01T06:51:16.392Z,48.31
2023-05-01T06:52:16.396Z,47.15
2023-05-01T06:53:16.370Z,49.61
2023-05-01T06:54:16.366Z,47.37
2023-05-01T06:55:16.368Z,47.51
2023-05-01T06:56:16.352Z,43.70
2023-05-01T06:57:16.324Z,38.74
2023-05-01T06:58:23.517Z,38.37
2023-05-01T06:59:17.302Z,39.60
2023-05-01T07:00:16.302Z,47.65
2023-05-01T07:01:16.406Z,45.24
2023-05-01T07:02:16.328Z,56.61
2023-05-01T07:03:16.283Z,42.60
2023-05-01T07:04:16.255Z,40.65
2023-05-01T07:05:16.252Z,43.33
2023-05-01T07:06:16.313Z,39.72
2023-05-01T07:07:16.256Z,41.32
2023-05-01T07:08:16.217Z,43.07
2023-05-01T07:09:16.229Z,38.58
2023-05-01T07:10:16.359Z,39.02
2023-05-01T07:11:16.177Z,43.68
2023-05-01T07:12:16.200Z,46.73
2023-05-01T07:13:16.186Z,45.49
2023-05-01T07:14:16.188Z,44.15
2023-05-01T07:15:16.144Z,40.45
2023-05-01T07:16:16.180Z,41.22
2023-05-01T07:17:16.121Z,44.16
2023-05-01T07:18:16.112Z,41.44
2023-05-01T07:19:16.102Z,38.91
2023-05-01T07:20:16.087Z,38.01
2023-05-01T07:21:16.089Z,42.20
2023-05-01T07:22:16.074Z,47.42
2023-05-01T07:23:16.049Z,43.07
2023-05-01T07:24:16.053Z,43.93
2023-05-01T07:25:16.044Z,44.89
2023-05-01T07:26:16.048Z,44.08
2023-05-01T07:27:16.056Z,37.01
2023-05-01T07:28:16.001Z,45.48
2023-05-01T07:29:15.994Z,43.31
2023-05-01T07:30:15.993Z,46.18
2023-05-01T07:31:16.023Z,47.72
2023-05-01T07:32:16.040Z,41.84
2023-05-01T07:33:15.989Z,46.19
2023-05-01T07:34:15.948Z,45.60
2023-05-01T07:35:15.954Z,45.59
2023-05-01T07:36:15.940Z,43.60
2023-05-01T07:37:16.065Z,40.71
2023-05-01T07:38:15.910Z,41.00
2023-05-01T07:39:15.885Z,40.70
2023-05-01T07:40:15.986Z,39.89
2023-05-01T07:41:15.880Z,41.93
2023-05-01T07:42:15.874Z,44.66
2023-05-01T07:43:15.846Z,50.56
2023-05-01T07:44:15.845Z,43.62
2023-05-01T07:45:15.824Z,46.10
2023-05-01T07:46:15.898Z,40.79
2023-05-01T07:47:15.799Z,42.42
2023-05-01T07:48:15.830Z,46.69
2023-05-01T07:49:15.782Z,42.22
2023-05-01T07:50:15.779Z,42.34
2023-05-01T07:51:15.772Z,40.18
2023-05-01T07:52:16.507Z,38.36
2023-05-01T07:53:15.740Z,42.47
2023-05-01T07:54:17.585Z,46.07
2023-05-01T07:55:22.583Z,45.37
2023-05-01T07:56:15.721Z,45.90
2023-05-01T07:57:15.695Z,48.30
2023-05-01T07:58:15.715Z,46.56
2023-05-01T07:59:15.677Z,48.17
2023-05-01T08:00:15.678Z,45.52
2023-05-01T08:01:15.666Z,45.27
2023-05-01T08:02:15.649Z,45.24
2023-05-01T08:03:15.870Z,45.91
2023-05-01T08:04:15.740Z,54.31
2023-05-01T08:05:15.604Z,50.57
2023-05-01T08:06:15.641Z,45.65
2023-05-01T08:07:15.587Z,44.08
2023-05-01T08:08:15.637Z,46.06
2023-05-01T08:09:15.560Z,44.06
2023-05-01T08:10:15.565Z,44.76
2023-05-01T08:11:15.557Z,48.99
2023-05-01T08:12:15.552Z,49.85
2023-05-01T08:13:15.555Z,43.65
2023-05-01T08:14:15.525Z,50.04
2023-05-01T08:15:15.512Z,43.80
2023-05-01T08:16:15.559Z,44.57
2023-05-01T08:17:15.484Z,43.44
2023-05-01T08:18:15.468Z,45.39
2023-05-01T08:19:15.466Z,47.63
2023-05-01T08:20:15.487Z,47.16
2023-05-01T08:21:15.460Z,46.55
2023-05-01T08:22:15.446Z,45.38
2023-05-01T08:23:15.414Z,46.86
2023-05-01T08:24:15.409Z,53.92
2023-05-01T08:25:15.391Z,42.38
2023-05-01T08:26:15.407Z,46.24
2023-05-01T08:27:15.377Z,48.43
2023-05-01T08:28:15.376Z,48.54
2023-05-01T08:29:15.355Z,41.26
2023-05-01T08:30:15.345Z,46.69
2023-05-01T08:31:15.361Z,46.01
2023-05-01T08:32:15.324Z,46.06
2023-05-01T08:33:15.328Z,48.73
2023-05-01T08:34:15.313Z,44.31
2023-05-01T08:35:15.305Z,43.64
2023-05-01T08:36:15.301Z,45.22
2023-05-01T08:37:15.276Z,47.22
2023-05-01T08:38:15.296Z,48.73
2023-05-01T08:39:15.266Z,46.47
2023-05-01T08:40:15.253Z,48.82
2023-05-01T08:41:15.238Z,46.38
2023-05-01T08:42:15.216Z,42.93
2023-05-01T08:43:15.231Z,48.15
2023-05-01T08:44:15.191Z,46.40
2023-05-01T08:45:15.182Z,46.26
2023-05-01T08:46:15.239Z,45.60
2023-05-01T08:47:15.159Z,48.91
2023-05-01T08:48:15.164Z,47.99
2023-05-01T08:49:15.149Z,44.39
2023-05-01T08:50:15.126Z,40.99
2023-05-01T08:51:15.122Z,38.88
2023-05-01T08:52:15.148Z,37.23
2023-05-01T08:53:15.097Z,40.97
2023-05-01T08:54:15.092Z,46.59
2023-05-01T08:55:15.106Z,43.08
2023-05-01T08:56:15.074Z,42.79
2023-05-01T08:57:15.051Z,44.68
2023-05-01T08:58:15.080Z,46.76
2023-05-01T08:59:15.047Z,43.57
2023-05-01T09:00:15.026Z,42.09
2023-05-01T09:01:15.064Z,40.44
2023-05-01T09:02:14.994Z,50.08
2023-05-01T09:03:15.037Z,42.05
2023-05-01T09:04:15.032Z,41.98
2023-05-01T09:05:14.966Z,44.89
2023-05-01T09:06:14.975Z,46.03
2023-05-01T09:07:14.937Z,49.15
2023-05-01T09:08:14.928Z,43.66
2023-05-01T09:09:14.921Z,42.62
2023-05-01T09:10:14.914Z,41.76
2023-05-01T09:11:14.909Z,48.38
2023-05-01T09:12:14.892Z,47.53
2023-05-01T09:13:14.891Z,54.36
2023-05-01T09:14:14.872Z,45.20
2023-05-01T09:15:14.859Z,39.10
2023-05-01T09:16:14.884Z,42.48
2023-05-01T09:17:14.840Z,39.48
2023-05-01T09:18:14.922Z,48.90
2023-05-01T09:19:14.817Z,51.78
2023-05-01T09:20:14.825Z,40.65
2023-05-01T09:21:14.809Z,38.92
2023-05-01T09:22:14.795Z,41.57
2023-05-01T09:23:14.779Z,41.17
2023-05-01T09:24:14.773Z,57.80
2023-05-01T09:25:14.775Z,40.57
2023-05-01T09:26:14.767Z,44.25
2023-05-01T09:27:14.800Z,46.83
2023-05-01T09:28:14.730Z,46.16
2023-05-01T09:29:14.726Z,47.23
2023-05-01T09:30:14.741Z,46.08
2023-05-01T09:31:14.815Z,40.47
2023-05-01T09:32:15.893Z,36.94
2023-05-01T09:33:15.850Z,43.47
2023-05-01T09:34:15.796Z,47.82
2023-05-01T09:35:15.814Z,46.23
2023-05-01T09:36:15.959Z,41.71
2023-05-01T09:37:15.789Z,45.04
2023-05-01T09:38:15.760Z,40.89
2023-05-01T09:39:15.769Z,40.03
2023-05-01T09:40:15.772Z,39.59
2023-05-01T09:41:15.760Z,45.93
2023-05-01T09:42:15.734Z,44.06
2023-05-01T09:43:15.704Z,53.73
2023-05-01T09:44:15.737Z,58.27
2023-05-01T09:45:15.700Z,57.55
2023-05-01T09:46:15.747Z,56.07
2023-05-01T09:47:15.673Z,45.10
2023-05-01T09:48:15.693Z,46.89
2023-05-01T09:49:15.648Z,42.04
2023-05-01T09:50:15.696Z,45.47
2023-05-01T09:51:15.623Z,44.68
2023-05-01T09:52:15.642Z,36.53
2023-05-01T09:53:15.612Z,36.16
2023-05-01T09:54:15.593Z,40.44
2023-05-01T09:55:15.626Z,39.67
2023-05-01T09:56:15.598Z,39.25
2023-05-01T09:57:15.629Z,43.68
2023-05-01T09:58:15.608Z,41.24
2023-05-01T09:59:15.608Z,39.68
2023-05-01T10:00:15.588Z,45.26
2023-05-01T10:01:15.590Z,46.52
2023-05-01T10:02:15.570Z,45.28
2023-05-01T10:03:15.620Z,47.80
2023-05-01T10:04:15.543Z,46.46
2023-05-01T10:05:15.541Z,48.98
2023-05-01T10:06:15.516Z,44.83
2023-05-01T10:07:15.522Z,40.54
2023-05-01T10:08:15.482Z,49.64
2023-05-01T10:09:15.553Z,52.78
2023-05-01T10:10:15.495Z,39.56
2023-05-01T10:11:15.476Z,44.60
2023-05-01T10:12:15.443Z,43.08
2023-05-01T10:13:15.429Z,41.85
2023-05-01T10:14:15.412Z,43.88
2023-05-01T10:15:24.484Z,45.78
2023-05-01T10:16:17.448Z,40.75
2023-05-01T10:17:15.442Z,36.94
2023-05-01T10:18:15.495Z,42.04
2023-05-01T10:19:15.378Z,48.91
2023-05-01T10:20:15.362Z,45.85
2023-05-01T10:21:15.379Z,49.51
2023-05-01T10:22:15.414Z,50.76
2023-05-01T10:23:15.378Z,50.05
2023-05-01T10:24:15.383Z,48.04
2023-05-01T10:25:15.336Z,47.58
2023-05-01T10:26:15.322Z,45.65
2023-05-01T10:27:15.326Z,36.53
2023-05-01T10:28:15.293Z,45.24
2023-05-01T10:29:15.307Z,44.62
2023-05-01T10:30:15.285Z,46.31
2023-05-01T10:31:15.309Z,39.95
2023-05-01T10:32:15.276Z,45.78
2023-05-01T10:33:15.308Z,49.02
2023-05-01T10:34:15.239Z,45.58
2023-05-01T10:35:15.346Z,46.27
2023-05-01T10:36:15.232Z,39.20
2023-05-01T10:37:15.231Z,43.29
2023-05-01T10:38:15.202Z,38.93
2023-05-01T10:39:15.195Z,45.56
2023-05-01T10:40:15.232Z,43.02
2023-05-01T10:41:15.168Z,45.32
2023-05-01T10:42:15.209Z,48.89
2023-05-01T10:43:15.181Z,45.33
2023-05-01T10:44:15.147Z,35.42
2023-05-01T10:45:15.114Z,39.23
2023-05-01T10:46:15.147Z,38.84
2023-05-01T10:47:15.121Z,41.81
2023-05-01T10:48:15.098Z,46.51
2023-05-01T10:49:15.111Z,40.73
2023-05-01T10:50:15.299Z,40.37
2023-05-01T10:51:15.082Z,45.24
2023-05-01T10:52:15.097Z,46.76
2023-05-01T10:53:15.095Z,41.23
2023-05-01T10:54:15.052Z,43.00
2023-05-01T10:55:15.054Z,47.61
2023-05-01T10:56:15.039Z,40.51
2023-05-01T10:57:15.064Z,41.03
2023-05-01T10:58:15.034Z,44.68
2023-05-01T10:59:15.033Z,42.89
2023-05-01T11:00:15.057Z,39.81
2023-05-01T11:01:14.995Z,36.68
2023-05-01T11:02:15.070Z,37.98
2023-05-01T11:03:15.011Z,42.79
2023-05-01T11:04:14.969Z,41.96
2023-05-01T11:05:15.068Z,39.68
2023-05-01T11:06:15.052Z,36.79
2023-05-01T11:07:15.047Z,39.15
2023-05-01T11:08:14.938Z,46.49
2023-05-01T11:09:14.940Z,51.42
2023-05-01T11:10:14.924Z,43.85
2023-05-01T11:11:14.909Z,41.60
2023-05-01T11:12:14.899Z,40.96
2023-05-01T11:13:14.876Z,44.75
2023-05-01T11:14:14.848Z,49.69
2023-05-01T11:15:14.863Z,39.05
2023-05-01T11:16:14.896Z,35.59
2023-05-01T11:17:14.858Z,39.64
2023-05-01T11:18:14.866Z,40.20
2023-05-01T11:19:14.802Z,40.17
2023-05-01T11:20:14.815Z,51.60
2023-05-01T11:21:14.772Z,41.69
2023-05-01T11:22:14.782Z,37.22
2023-05-01T11:23:14.927Z,41.84
2023-05-01T11:24:14.739Z,37.44
2023-05-01T11:25:14.754Z,52.12
2023-05-01T11:26:14.739Z,47.02
2023-05-01T11:27:14.738Z,42.23
2023-05-01T11:28:14.734Z,43.95
2023-05-01T11:29:14.713Z,40.60
2023-05-01T11:30:14.710Z,42.58
2023-05-01T11:31:14.717Z,42.76
2023-05-01T11:32:14.931Z,44.82
2023-05-01T11:33:14.716Z,38.94
2023-05-01T11:34:14.678Z,44.16
2023-05-01T11:35:14.692Z,43.83
2023-05-01T11:36:14.694Z,57.65
2023-05-01T11:37:14.617Z,39.92
2023-05-01T11:38:14.596Z,41.47
2023-05-01T11:39:14.578Z,45.60
2023-05-01T11:40:14.584Z,41.38
2023-05-01T11:41:14.583Z,41.16
2023-05-01T11:42:14.641Z,38.69
2023-05-01T11:43:14.621Z,37.97
2023-05-01T11:44:14.574Z,37.80
2023-05-01T11:45:14.560Z,43.86
2023-05-01T11:46:14.577Z,38.81
2023-05-01T11:47:14.544Z,45.21
2023-05-01T11:48:14.653Z,54.75
2023-05-01T11:49:14.522Z,40.64
2023-05-01T11:50:14.504Z,38.48
2023-05-01T11:51:14.497Z,43.27
2023-05-01T11:52:14.507Z,37.30
2023-05-01T11:53:14.511Z,37.85
2023-05-01T11:54:15.745Z,39.93
2023-05-01T11:55:15.459Z,37.22
2023-05-01T11:56:25.367Z,44.30
2023-05-01T11:57:16.453Z,42.82
2023-05-01T11:58:14.394Z,41.04
2023-05-01T11:59:15.440Z,38.07
2023-05-01T12:00:14.409Z,41.16
2023-05-01T12:01:14.391Z,42.07
2023-05-01T12:02:14.461Z,41.62
2023-05-01T12:03:14.695Z,43.35
2023-05-01T12:04:14.614Z,41.56
2023-05-01T12:05:14.382Z,41.65
2023-05-01T12:06:14.426Z,39.90
2023-05-01T12:07:14.352Z,45.22
2023-05-01T12:08:14.332Z,40.05
2023-05-01T12:09:14.314Z,43.20
2023-05-01T12:10:14.301Z,43.21
2023-05-01T12:11:14.269Z,50.66
2023-05-01T12:12:15.313Z,52.27
2023-05-01T12:13:14.316Z,45.17
2023-05-01T12:14:14.300Z,41.61
2023-05-01T12:15:14.310Z,53.97
2023-05-01T12:16:14.254Z,42.49
2023-05-01T12:17:14.326Z,42.29
2023-05-01T12:18:15.359Z,40.76
2023-05-01T12:19:14.217Z,41.50
2023-05-01T12:20:14.246Z,53.26
2023-05-01T12:21:14.224Z,48.41
2023-05-01T12:22:14.234Z,47.72
2023-05-01T12:23:14.196Z,45.42
2023-05-01T12:24:14.195Z,37.83
2023-05-01T12:25:14.185Z,42.28
2023-05-01T12:26:14.151Z,54.46
2023-05-01T12:27:14.185Z,46.67
2023-05-01T12:28:14.144Z,45.56
2023-05-01T12:29:14.125Z,40.82
2023-05-01T12:30:14.127Z,46.61
2023-05-01T12:31:14.131Z,48.68
2023-05-01T12:32:14.109Z,50.10
2023-05-01T12:33:14.087Z,47.52
2023-05-01T12:34:14.078Z,50.18
2023-05-01T12:35:14.120Z,48.91
2023-05-01T12:36:14.038Z,46.69
2023-05-01T12:37:14.042Z,46.73
2023-05-01T12:38:14.040Z,42.28
2023-05-01T12:39:15.023Z,43.65
2023-05-01T12:40:14.095Z,49.07
2023-05-01T12:41:14.043Z,50.83
2023-05-01T12:42:14.020Z,41.27
2023-05-01T12:43:14.005Z,41.92
2023-05-01T12:44:13.981Z,43.80
2023-05-01T12:45:14.990Z,43.78
2023-05-01T12:46:14.006Z,40.99
2023-05-01T12:47:13.956Z,46.40
2023-05-01T12:48:13.993Z,47.19
2023-05-01T12:49:13.927Z,53.14
2023-05-01T12:50:13.884Z,46.08
2023-05-01T12:51:13.919Z,47.96
2023-05-01T12:52:13.899Z,45.89
2023-05-01T12:53:13.887Z,44.02
2023-05-01T12:54:13.861Z,53.10
2023-05-01T12:55:13.876Z,46.49